createdAt,value
2018-02-13T00:00:51.647Z,1012.80
2018-02-13T00:01:51.676Z,1012.80
2018-02-13T00:02:51.687Z,1012.80
2018-02-13T00:03:51.806Z,1012.84
2018-02-13T00:04:51.722Z,1012.83
2018-02-13T00:05:51.793Z,1012.84
2018-02-13T00:06:51.772Z,1012.82
2018-02-13T00:07:51.796Z,1012.81
2018-02-13T00:08:51.801Z,1012.79
2018-02-13T00:09:51.823Z,1012.79
2018-02-13T00:10:51.834Z,1012.77
2018-02-13T00:11:51.869Z,1012.80
2018-02-13T00:12:51.871Z,1012.82
2018-02-13T00:13:51.895Z,1012.86
2018-02-13T00:14:51.915Z,1012.92
2018-02-13T00:15:51.929Z,1012.88
2018-02-13T00:16:51.975Z,1012.93
2018-02-13T00:17:51.966Z,1012.95
2018-02-13T00:18:51.995Z,1012.93
2018-02-13T00:19:52.007Z,1012.94
2018-02-13T00:20:52.026Z,1012.97
2018-02-13T00:21:52.046Z,1012.95
2018-02-13T00:22:52.070Z,1012.96
2018-02-13T00:23:52.092Z,1012.98
2018-02-13T00:24:52.099Z,1012.96
2018-02-13T00:25:52.142Z,1012.98
2018-02-13T00:26:52.140Z,1013.00
2018-02-13T00:27:52.161Z,1013.01
2018-02-13T00:28:52.190Z,1013.00
2018-02-13T00:29:52.197Z,1013.03
2018-02-13T00:30:52.213Z,1012.99
2018-02-13T00:31:52.237Z,1013.03
2018-02-13T00:32:52.250Z,1013.02
2018-02-13T00:33:52.268Z,1012.99
2018-02-13T00:34:52.300Z,1013.00
2018-02-13T00:35:52.309Z,1013.01
2018-02-13T00:36:52.335Z,1013.03
2018-02-13T00:37:52.349Z,1013.06
2018-02-13T00:38:52.373Z,1013.07
2018-02-13T00:39:52.381Z,1013.06
2018-02-13T00:40:52.426Z,1013.05
2018-02-13T00:41:52.425Z,1013.06
2018-02-13T00:42:52.442Z,1013.04
2018-02-13T00:43:52.473Z,1013.06
2018-02-13T00:44:52.479Z,1013.02
2018-02-13T00:45:52.511Z,1013.02
2018-02-13T00:46:52.520Z,1013.02
2018-02-13T00:47:52.537Z,1012.99
2018-02-13T00:48:52.568Z,1013.00
2018-02-13T00:49:52.579Z,1013.00
2018-02-13T00:50:52.588Z,1013.03
2018-02-13T00:51:52.620Z,1013.02
2018-02-13T00:52:52.638Z,1013.01
2018-02-13T00:53:52.643Z,1013.03
2018-02-13T00:54:52.670Z,1013.02
2018-02-13T00:55:52.682Z,1013.02
2018-02-13T00:56:52.696Z,1013.06
2018-02-13T00:57:52.733Z,1013.05
2018-02-13T00:58:52.737Z,1013.02
2018-02-13T00:59:52.758Z,1013.02
2018-02-13T01:00:52.795Z,1013.06
2018-02-13T01:01:52.802Z,1012.98
2018-02-13T01:02:52.808Z,1013.00
2018-02-13T01:03:52.830Z,1012.99
2018-02-13T01:04:52.853Z,1013.02
2018-02-13T01:05:52.879Z,1013.07
2018-02-13T01:06:52.884Z,1013.04
2018-02-13T01:07:52.907Z,1013.05
2018-02-13T01:08:52.925Z,1013.04
2018-02-13T01:09:52.941Z,1013.07
2018-02-13T01:10:52.963Z,1013.06
2018-02-13T01:11:52.980Z,1013.03
2018-02-13T01:12:53.004Z,1013.02
2018-02-13T01:13:53.021Z,1013.00
2018-02-13T01:14:53.036Z,1013.04
2018-02-13T01:15:53.053Z,1013.00
2018-02-13T01:16:53.076Z,1013.02
2018-02-13T01:17:53.087Z,1013.02
2018-02-13T01:18:53.106Z,1013.04
2018-02-13T01:19:53.130Z,1013.03
2018-02-13T01:20:53.165Z,1013.03
2018-02-13T01:21:53.247Z,1013.04
2018-02-13T01:22:53.189Z,1013.05
2018-02-13T01:23:53.216Z,1013.08
2018-02-13T01:24:53.217Z,1013.06
2018-02-13T01:25:53.242Z,1013.08
2018-02-13T01:26:53.257Z,1013.02
2018-02-13T01:27:53.286Z,1013.04
2018-02-13T01:28:53.295Z,1013.06
2018-02-13T01:29:53.309Z,1013.02
2018-02-13T01:30:53.348Z,1013.03
2018-02-13T01:31:53.353Z,1013.04
2018-02-13T01:32:53.369Z,1013.04
2018-02-13T01:33:53.386Z,1013.06
2018-02-13T01:34:53.419Z,1013.03
2018-02-13T01:35:53.449Z,1013.11
2018-02-13T01:36:53.454Z,1013.12
2018-02-13T01:37:53.462Z,1013.14
2018-02-13T01:38:53.481Z,1013.13
2018-02-13T01:39:53.508Z,1013.18
2018-02-13T01:40:53.513Z,1013.16
2018-02-13T01:41:53.540Z,1013.18
2018-02-13T01:42:53.554Z,1013.15
2018-02-13T01:43:53.576Z,1013.15
2018-02-13T01:44:53.593Z,1013.20
2018-02-13T01:45:53.607Z,1013.16
2018-02-13T01:46:53.633Z,1013.15
2018-02-13T01:47:54.197Z,1013.14
2018-02-13T01:48:53.673Z,1013.10
2018-02-13T01:49:53.695Z,1013.11
2018-02-13T01:50:53.699Z,1013.12
2018-02-13T01:51:53.736Z,1013.13
2018-02-13T01:52:53.739Z,1013.10
2018-02-13T01:53:53.764Z,1013.10
2018-02-13T01:54:53.775Z,1013.08
2018-02-13T01:55:53.797Z,1013.12
2018-02-13T01:56:53.814Z,1013.13
2018-02-13T01:57:53.836Z,1013.16
2018-02-13T01:58:53.878Z,1013.12
2018-02-13T01:59:53.876Z,1013.15
2018-02-13T02:00:53.997Z,1013.15
2018-02-13T02:01:53.913Z,1013.18
2018-02-13T02:02:53.944Z,1013.18
2018-02-13T02:03:53.942Z,1013.16
2018-02-13T02:04:53.966Z,1013.17
2018-02-13T02:05:53.999Z,1013.20
2018-02-13T02:06:54.001Z,1013.19
2018-02-13T02:07:54.023Z,1013.18
2018-02-13T02:08:54.037Z,1013.19
2018-02-13T02:09:54.065Z,1013.20
2018-02-13T02:10:54.074Z,1013.17
2018-02-13T02:11:54.092Z,1013.14
2018-02-13T02:12:54.109Z,1013.13
2018-02-13T02:13:54.131Z,1013.09
2018-02-13T02:14:54.149Z,1013.11
2018-02-13T02:15:54.170Z,1013.10
2018-02-13T02:16:54.187Z,1013.11
2018-02-13T02:17:54.207Z,1013.11
2018-02-13T02:18:54.231Z,1013.07
2018-02-13T02:19:54.243Z,1013.10
2018-02-13T02:20:54.268Z,1013.11
2018-02-13T02:21:54.277Z,1013.12
2018-02-13T02:22:54.304Z,1013.12
2018-02-13T02:23:54.317Z,1013.13
2018-02-13T02:24:54.337Z,1013.14
2018-02-13T02:25:54.352Z,1013.12
2018-02-13T02:26:54.377Z,1013.08
2018-02-13T02:27:54.389Z,1013.10
2018-02-13T02:28:54.442Z,1013.11
2018-02-13T02:29:54.423Z,1013.14
2018-02-13T02:30:54.448Z,1013.15
2018-02-13T02:31:54.464Z,1013.17
2018-02-13T02:32:54.494Z,1013.18
2018-02-13T02:33:54.511Z,1013.19
2018-02-13T02:34:54.522Z,1013.20
2018-02-13T02:35:54.540Z,1013.18
2018-02-13T02:36:54.555Z,1013.21
2018-02-13T02:37:54.578Z,1013.18
2018-02-13T02:38:54.594Z,1013.20
2018-02-13T02:39:54.614Z,1013.20
2018-02-13T02:40:54.654Z,1013.19
2018-02-13T02:41:54.655Z,1013.20
2018-02-13T02:42:54.671Z,1013.20
2018-02-13T02:43:54.686Z,1013.23
2018-02-13T02:44:54.706Z,1013.24
2018-02-13T02:45:54.719Z,1013.25
2018-02-13T02:46:54.763Z,1013.28
2018-02-13T02:47:54.772Z,1013.23
2018-02-13T02:48:54.784Z,1013.27
2018-02-13T02:49:54.812Z,1013.25
2018-02-13T02:50:54.819Z,1013.25
2018-02-13T02:51:54.836Z,1013.28
2018-02-13T02:52:54.857Z,1013.27
2018-02-13T02:53:54.869Z,1013.30
2018-02-13T02:54:54.891Z,1013.27
2018-02-13T02:55:54.925Z,1013.23
2018-02-13T02:56:54.934Z,1013.19
2018-02-13T02:57:54.947Z,1013.21
2018-02-13T02:58:54.976Z,1013.16
2018-02-13T02:59:54.985Z,1013.14
2018-02-13T03:00:55.025Z,1013.12
2018-02-13T03:01:55.022Z,1013.12
2018-02-13T03:02:55.041Z,1013.15
2018-02-13T03:03:55.063Z,1013.13
2018-02-13T03:04:55.093Z,1013.13
2018-02-13T03:05:55.165Z,1013.10
2018-02-13T03:06:55.110Z,1013.14
2018-02-13T03:07:55.141Z,1013.14
2018-02-13T03:08:55.148Z,1013.15
2018-02-13T03:09:55.173Z,1013.12
2018-02-13T03:10:55.196Z,1013.14
2018-02-13T03:11:55.209Z,1013.16
2018-02-13T03:12:55.221Z,1013.17
2018-02-13T03:13:55.256Z,1013.15
2018-02-13T03:14:55.259Z,1013.21
2018-02-13T03:15:55.281Z,1013.19
2018-02-13T03:16:55.308Z,1013.20
2018-02-13T03:17:55.322Z,1013.17
2018-02-13T03:18:55.342Z,1013.15
2018-02-13T03:19:55.355Z,1013.19
2018-02-13T03:20:55.405Z,1013.21
2018-02-13T03:21:55.411Z,1013.18
2018-02-13T03:22:55.415Z,1013.17
2018-02-13T03:23:55.428Z,1013.26
2018-02-13T03:24:55.452Z,1013.24
2018-02-13T03:25:55.472Z,1013.24
2018-02-13T03:26:55.496Z,1013.26
2018-02-13T03:27:55.505Z,1013.26
2018-02-13T03:28:55.521Z,1013.24
2018-02-13T03:29:55.570Z,1013.24
2018-02-13T03:30:55.558Z,1013.24
2018-02-13T03:31:55.587Z,1013.25
2018-02-13T03:32:55.597Z,1013.23
2018-02-13T03:33:55.627Z,1013.25
2018-02-13T03:34:55.634Z,1013.27
2018-02-13T03:35:55.666Z,1013.27
2018-02-13T03:36:55.676Z,1013.29
2018-02-13T03:37:55.690Z,1013.27
2018-02-13T03:38:55.715Z,1013.31
2018-02-13T03:39:55.749Z,1013.31
2018-02-13T03:40:55.746Z,1013.31
2018-02-13T03:41:55.765Z,1013.30
2018-02-13T03:42:55.789Z,1013.35
2018-02-13T03:43:55.807Z,1013.35
2018-02-13T03:44:55.898Z,1013.35
2018-02-13T03:45:55.839Z,1013.36
2018-02-13T03:46:55.868Z,1013.35
2018-02-13T03:47:55.880Z,1013.36
2018-02-13T03:48:55.903Z,1013.38
2018-02-13T03:49:55.917Z,1013.31
2018-02-13T03:50:55.934Z,1013.32
2018-02-13T03:51:55.957Z,1013.34
2018-02-13T03:52:55.969Z,1013.35
2018-02-13T03:53:55.996Z,1013.36
2018-02-13T03:54:56.006Z,1013.36
2018-02-13T03:55:56.028Z,1013.34
2018-02-13T03:56:56.047Z,1013.35
2018-02-13T03:57:56.072Z,1013.34
2018-02-13T03:58:56.083Z,1013.33
2018-02-13T03:59:56.106Z,1013.33
2018-02-13T04:00:56.133Z,1013.33
2018-02-13T04:01:56.139Z,1013.30
2018-02-13T04:02:56.159Z,1013.30
2018-02-13T04:03:56.176Z,1013.31
2018-02-13T04:04:56.195Z,1013.31
2018-02-13T04:05:56.212Z,1013.31
2018-02-13T04:06:56.238Z,1013.30
2018-02-13T04:07:56.250Z,1013.35
2018-02-13T04:08:56.268Z,1013.32
2018-02-13T04:09:56.297Z,1013.29
2018-02-13T04:10:56.307Z,1013.34
2018-02-13T04:11:56.346Z,1013.31
2018-02-13T04:12:56.348Z,1013.33
2018-02-13T04:13:56.363Z,1013.34
2018-02-13T04:14:56.397Z,1013.34
2018-02-13T04:15:56.404Z,1013.32
2018-02-13T04:16:56.435Z,1013.31
2018-02-13T04:17:56.436Z,1013.33
2018-02-13T04:18:56.469Z,1013.36
2018-02-13T04:19:56.484Z,1013.33
2018-02-13T04:20:56.504Z,1013.34
2018-02-13T04:21:56.513Z,1013.34
2018-02-13T04:22:56.530Z,1013.37
2018-02-13T04:23:56.550Z,1013.37
2018-02-13T04:24:56.571Z,1013.37
2018-02-13T04:25:56.594Z,1013.37
2018-02-13T04:26:56.605Z,1013.40
2018-02-13T04:27:56.633Z,1013.39
2018-02-13T04:28:56.647Z,1013.37
2018-02-13T04:29:56.665Z,1013.40
2018-02-13T04:30:56.681Z,1013.39
2018-02-13T04:31:56.712Z,1013.37
2018-02-13T04:32:56.715Z,1013.38
2018-02-13T04:33:56.743Z,1013.37
2018-02-13T04:34:56.756Z,1013.36
2018-02-13T04:35:56.792Z,1013.34
2018-02-13T04:36:56.793Z,1013.34
2018-02-13T04:37:56.814Z,1013.32
2018-02-13T04:38:56.830Z,1013.33
2018-02-13T04:39:56.849Z,1013.32
2018-02-13T04:40:56.867Z,1013.31
2018-02-13T04:41:56.891Z,1013.31
2018-02-13T04:42:56.905Z,1013.28
2018-02-13T04:43:56.923Z,1013.33
2018-02-13T04:44:56.962Z,1013.31
2018-02-13T04:45:56.968Z,1013.33
2018-02-13T04:46:56.979Z,1013.35
2018-02-13T04:47:57.003Z,1013.34
2018-02-13T04:48:57.019Z,1013.33
2018-02-13T04:49:57.058Z,1013.37
2018-02-13T04:50:57.063Z,1013.37
2018-02-13T04:51:57.077Z,1013.38
2018-02-13T04:52:57.090Z,1013.34
2018-02-13T04:53:57.133Z,1013.32
2018-02-13T04:54:57.129Z,1013.35
2018-02-13T04:55:57.144Z,1013.35
2018-02-13T04:56:57.178Z,1013.35
2018-02-13T04:57:57.182Z,1013.35
2018-02-13T04:58:57.212Z,1013.32
2018-02-13T04:59:57.287Z,1013.37
2018-02-13T05:00:57.241Z,1013.34
2018-02-13T05:01:57.306Z,1013.35
2018-02-13T05:02:57.401Z,1013.38
2018-02-13T05:03:57.294Z,1013.36
2018-02-13T05:04:58.196Z,1013.33
2018-02-13T05:05:57.329Z,1013.30
2018-02-13T05:06:57.356Z,1013.37
2018-02-13T05:07:57.371Z,1013.36
2018-02-13T05:08:57.394Z,1013.35
2018-02-13T05:09:57.405Z,1013.35
2018-02-13T05:10:57.423Z,1013.35
2018-02-13T05:11:57.442Z,1013.35
2018-02-13T05:12:57.463Z,1013.36
2018-02-13T05:13:57.478Z,1013.37
2018-02-13T05:14:57.498Z,1013.34
2018-02-13T05:15:57.658Z,1013.38
2018-02-13T05:16:57.528Z,1013.35
2018-02-13T05:17:58.196Z,1013.34
2018-02-13T05:18:57.573Z,1013.30
2018-02-13T05:19:57.610Z,1013.31
2018-02-13T05:20:57.631Z,1013.31
2018-02-13T05:21:57.624Z,1013.32
2018-02-13T05:22:57.640Z,1013.35
2018-02-13T05:23:57.674Z,1013.34
2018-02-13T05:24:57.690Z,1013.35
2018-02-13T05:25:57.705Z,1013.38
2018-02-13T05:26:57.716Z,1013.39
2018-02-13T05:27:57.749Z,1013.35
2018-02-13T05:28:57.773Z,1013.37
2018-02-13T05:29:57.770Z,1013.37
2018-02-13T05:30:57.837Z,1013.38
2018-02-13T05:31:57.811Z,1013.37
2018-02-13T05:32:57.824Z,1013.35
2018-02-13T05:33:57.846Z,1013.32
2018-02-13T05:34:57.861Z,1013.41
2018-02-13T05:35:57.875Z,1013.44
2018-02-13T05:36:57.895Z,1013.42
2018-02-13T05:37:57.924Z,1013.44
2018-02-13T05:38:57.948Z,1013.40
2018-02-13T05:39:57.952Z,1013.40
2018-02-13T05:40:57.974Z,1013.41
2018-02-13T05:41:57.989Z,1013.40
2018-02-13T05:42:58.011Z,1013.43
2018-02-13T05:43:58.024Z,1013.41
2018-02-13T05:44:58.040Z,1013.40
2018-02-13T05:45:58.082Z,1013.37
2018-02-13T05:46:58.088Z,1013.46
2018-02-13T05:47:58.110Z,1013.45
2018-02-13T05:48:58.112Z,1013.43
2018-02-13T05:49:58.137Z,1013.46
2018-02-13T05:50:58.182Z,1013.42
2018-02-13T05:51:58.174Z,1013.41
2018-02-13T05:52:58.193Z,1013.43
2018-02-13T05:53:58.206Z,1013.45
2018-02-13T05:54:58.223Z,1013.46
2018-02-13T05:55:58.251Z,1013.42
2018-02-13T05:56:58.271Z,1013.42
2018-02-13T05:57:58.284Z,1013.45
2018-02-13T05:58:58.300Z,1013.45
2018-02-13T05:59:58.317Z,1013.43
2018-02-13T06:00:58.349Z,1013.45
2018-02-13T06:01:58.350Z,1013.44
2018-02-13T06:02:58.370Z,1013.46
2018-02-13T06:03:58.402Z,1013.47
2018-02-13T06:04:58.408Z,1013.47
2018-02-13T06:05:58.428Z,1013.50
2018-02-13T06:06:58.494Z,1013.48
2018-02-13T06:07:58.465Z,1013.49
2018-02-13T06:08:58.481Z,1013.49
2018-02-13T06:09:58.508Z,1013.53
2018-02-13T06:10:58.524Z,1013.51
2018-02-13T06:11:58.555Z,1013.53
2018-02-13T06:12:58.593Z,1013.50
2018-02-13T06:13:58.591Z,1013.52
2018-02-13T06:14:58.611Z,1013.55
2018-02-13T06:15:58.614Z,1013.58
2018-02-13T06:16:58.635Z,1013.58
2018-02-13T06:17:58.652Z,1013.56
2018-02-13T06:18:58.680Z,1013.62
2018-02-13T06:19:58.685Z,1013.60
2018-02-13T06:20:58.712Z,1013.59
2018-02-13T06:21:58.742Z,1013.61
2018-02-13T06:22:58.744Z,1013.57
2018-02-13T06:23:58.763Z,1013.58
2018-02-13T06:24:58.827Z,1013.64
2018-02-13T06:25:58.791Z,1013.63
2018-02-13T06:26:58.812Z,1013.60
2018-02-13T06:27:58.827Z,1013.63
2018-02-13T06:28:58.862Z,1013.63
2018-02-13T06:29:58.869Z,1013.63
2018-02-13T06:30:58.899Z,1013.66
2018-02-13T06:31:58.910Z,1013.62
2018-02-13T06:32:58.924Z,1013.66
2018-02-13T06:33:58.940Z,1013.62
2018-02-13T06:34:58.960Z,1013.64
2018-02-13T06:35:58.982Z,1013.63
2018-02-13T06:36:59.011Z,1013.66
2018-02-13T06:37:59.013Z,1013.64
2018-02-13T06:38:59.037Z,1013.65
2018-02-13T06:39:59.063Z,1013.68
2018-02-13T06:40:59.066Z,1013.67
2018-02-13T06:41:59.087Z,1013.68
2018-02-13T06:42:59.105Z,1013.70
2018-02-13T06:43:59.125Z,1013.69
2018-02-13T06:44:59.140Z,1013.66
2018-02-13T06:45:59.170Z,1013.66
2018-02-13T06:46:59.177Z,1013.66
2018-02-13T06:47:59.259Z,1013.69
2018-02-13T06:48:59.280Z,1013.64
2018-02-13T06:49:59.337Z,1013.68
2018-02-13T06:50:59.253Z,1013.71
2018-02-13T06:51:59.276Z,1013.67
2018-02-13T06:52:59.288Z,1013.67
2018-02-13T06:53:59.310Z,1013.65
2018-02-13T06:54:59.332Z,1013.65
2018-02-13T06:55:59.348Z,1013.67
2018-02-13T06:56:59.357Z,1013.67
2018-02-13T06:57:59.376Z,1013.65
2018-02-13T06:58:59.410Z,1013.69
2018-02-13T06:59:59.419Z,1013.66
2018-02-13T07:00:59.443Z,1013.67
2018-02-13T07:02:00.194Z,1013.69
2018-02-13T07:02:59.473Z,1013.71
2018-02-13T07:03:59.494Z,1013.72
2018-02-13T07:04:59.511Z,1013.71
2018-02-13T07:05:59.524Z,1013.72
2018-02-13T07:06:59.544Z,1013.73
2018-02-13T07:07:59.563Z,1013.72
2018-02-13T07:08:59.592Z,1013.71
2018-02-13T07:09:59.605Z,1013.74
2018-02-13T07:10:59.614Z,1013.73
2018-02-13T07:11:59.640Z,1013.76
2018-02-13T07:12:59.662Z,1013.74
2018-02-13T07:13:59.676Z,1013.76
2018-02-13T07:14:59.697Z,1013.81
2018-02-13T07:15:59.721Z,1013.76
2018-02-13T07:16:59.727Z,1013.78
2018-02-13T07:17:59.755Z,1013.81
2018-02-13T07:18:59.761Z,1013.75
2018-02-13T07:19:59.779Z,1013.81
2018-02-13T07:20:59.815Z,1013.81
2018-02-13T07:21:59.822Z,1013.83
2018-02-13T07:22:59.853Z,1013.78
2018-02-13T07:23:59.856Z,1013.81
2018-02-13T07:24:59.893Z,1013.84
2018-02-13T07:25:59.895Z,1013.85
2018-02-13T07:26:59.970Z,1013.83
2018-02-13T07:27:59.935Z,1013.84
2018-02-13T07:28:59.969Z,1013.86
2018-02-13T07:30:00.034Z,1013.91
2018-02-13T07:30:59.982Z,1013.91
2018-02-13T07:32:00.010Z,1013.95
2018-02-13T07:33:00.020Z,1013.94
2018-02-13T07:34:00.057Z,1013.97
2018-02-13T07:35:00.082Z,1014.01
2018-02-13T07:36:00.078Z,1014.00
2018-02-13T07:37:00.092Z,1013.97
2018-02-13T07:38:00.113Z,1013.99
2018-02-13T07:39:00.152Z,1013.99
2018-02-13T07:40:00.149Z,1013.99
2018-02-13T07:41:00.183Z,1013.97
2018-02-13T07:42:00.202Z,1014.01
2018-02-13T07:43:00.203Z,1014.02
2018-02-13T07:44:00.224Z,1014.04
2018-02-13T07:45:00.244Z,1014.03
2018-02-13T07:46:00.257Z,1014.03
2018-02-13T07:47:00.287Z,1014.07
2018-02-13T07:48:00.309Z,1014.09
2018-02-13T07:49:00.322Z,1014.05
2018-02-13T07:50:00.344Z,1014.09
2018-02-13T07:51:00.357Z,1014.08
2018-02-13T07:52:00.368Z,1014.04
2018-02-13T07:53:00.388Z,1014.11
2018-02-13T07:54:00.408Z,1014.08
2018-02-13T07:55:00.429Z,1014.10
2018-02-13T07:56:00.442Z,1014.11
2018-02-13T07:57:00.460Z,1014.10
2018-02-13T07:58:00.489Z,1014.13
2018-02-13T07:59:00.497Z,1014.14
2018-02-13T08:00:00.521Z,1014.13
2018-02-13T08:01:00.536Z,1014.12
2018-02-13T08:02:00.552Z,1014.14
2018-02-13T08:03:00.571Z,1014.13
2018-02-13T08:04:00.601Z,1014.17
2018-02-13T08:05:00.607Z,1014.13
2018-02-13T08:06:00.625Z,1014.14
2018-02-13T08:07:00.648Z,1014.13
2018-02-13T08:08:00.661Z,1014.08
2018-02-13T08:09:00.699Z,1014.13
2018-02-13T08:10:00.697Z,1014.09
2018-02-13T08:11:00.719Z,1014.11
2018-02-13T08:12:00.741Z,1014.16
2018-02-13T08:13:00.758Z,1014.10
2018-02-13T08:14:00.775Z,1014.12
2018-02-13T08:15:00.843Z,1014.11
2018-02-13T08:16:00.815Z,1014.13
2018-02-13T08:17:00.830Z,1014.13
2018-02-13T08:18:00.847Z,1014.14
2018-02-13T08:19:00.921Z,1014.16
2018-02-13T08:20:00.899Z,1014.11
2018-02-13T08:21:00.900Z,1014.14
2018-02-13T08:22:00.925Z,1014.12
2018-02-13T08:23:00.942Z,1014.11
2018-02-13T08:24:00.954Z,1014.08
2018-02-13T08:25:00.974Z,1014.11
2018-02-13T08:26:01.004Z,1014.08
2018-02-13T08:27:01.019Z,1014.10
2018-02-13T08:28:01.032Z,1014.08
2018-02-13T08:29:01.049Z,1014.05
2018-02-13T08:30:01.071Z,1014.03
2018-02-13T08:31:01.089Z,1014.06
2018-02-13T08:32:01.105Z,1014.05
2018-02-13T08:33:01.133Z,1014.02
2018-02-13T08:34:01.140Z,1014.00
2018-02-13T08:35:01.159Z,1014.01
2018-02-13T08:36:01.186Z,1014.05
2018-02-13T08:37:01.195Z,1014.06
2018-02-13T08:38:01.225Z,1014.05
2018-02-13T08:39:01.233Z,1014.05
2018-02-13T08:40:01.256Z,1014.05
2018-02-13T08:41:01.275Z,1014.05
2018-02-13T08:42:01.297Z,1014.03
2018-02-13T08:43:01.315Z,1014.04
2018-02-13T08:44:01.324Z,1014.04
2018-02-13T08:45:01.351Z,1014.06
2018-02-13T08:46:01.376Z,1014.02
2018-02-13T08:47:01.383Z,1014.02
2018-02-13T08:48:01.411Z,1014.04
2018-02-13T08:49:01.425Z,1014.05
2018-02-13T08:50:01.443Z,1014.03
2018-02-13T08:51:01.464Z,1014.03
2018-02-13T08:52:01.484Z,1014.03
2018-02-13T08:53:01.497Z,1014.01
2018-02-13T08:54:01.513Z,1014.02
2018-02-13T08:55:01.538Z,1014.06
2018-02-13T08:56:01.549Z,1014.07
2018-02-13T08:57:01.569Z,1014.06
2018-02-13T08:58:01.598Z,1014.04
2018-02-13T08:59:01.614Z,1014.05
2018-02-13T09:00:01.631Z,1014.06
2018-02-13T09:01:01.696Z,1014.10
2018-02-13T09:02:01.673Z,1014.13
2018-02-13T09:03:01.691Z,1014.12
2018-02-13T09:04:01.700Z,1014.09
2018-02-13T09:05:01.725Z,1014.11
2018-02-13T09:06:01.749Z,1014.09
2018-02-13T09:07:01.762Z,1014.12
2018-02-13T09:08:01.793Z,1014.07
2018-02-13T09:09:01.831Z,1014.11
2018-02-13T09:10:01.819Z,1014.07
2018-02-13T09:11:01.834Z,1014.11
2018-02-13T09:12:01.875Z,1014.09
2018-02-13T09:13:01.869Z,1014.07
2018-02-13T09:14:01.886Z,1014.04
2018-02-13T09:15:01.905Z,1014.05
2018-02-13T09:16:01.930Z,1014.02
2018-02-13T09:17:01.947Z,1014.04
2018-02-13T09:18:01.962Z,1014.06
2018-02-13T09:19:01.983Z,1014.07
2018-02-13T09:20:02.002Z,1014.07
2018-02-13T09:21:02.033Z,1014.07
2018-02-13T09:22:02.041Z,1014.07
2018-02-13T09:23:02.058Z,1014.09
2018-02-13T09:24:02.074Z,1014.08
2018-02-13T09:25:02.105Z,1014.07
2018-02-13T09:26:02.112Z,1014.05
2018-02-13T09:27:02.144Z,1014.10
2018-02-13T09:28:02.155Z,1014.06
2018-02-13T09:29:02.172Z,1014.02
2018-02-13T09:30:02.195Z,1014.02
2018-02-13T09:31:02.208Z,1013.99
2018-02-13T09:32:02.227Z,1013.98
2018-02-13T09:33:02.252Z,1014.00
2018-02-13T09:34:02.272Z,1013.99
2018-02-13T09:35:02.300Z,1014.01
2018-02-13T09:36:02.311Z,1013.92
2018-02-13T09:37:02.319Z,1013.94
2018-02-13T09:38:02.345Z,1013.95
2018-02-13T09:39:02.354Z,1013.94
2018-02-13T09:40:02.379Z,1013.93
2018-02-13T09:41:02.396Z,1013.95
2018-02-13T09:42:02.423Z,1013.97
2018-02-13T09:43:02.431Z,1013.97
2018-02-13T09:44:02.453Z,1013.97
2018-02-13T09:45:02.484Z,1013.95
2018-02-13T09:46:02.491Z,1013.97
2018-02-13T09:47:02.519Z,1013.93
2018-02-13T09:48:02.529Z,1013.97
2018-02-13T09:49:02.562Z,1013.95
2018-02-13T09:50:02.566Z,1013.99
2018-02-13T09:51:02.596Z,1013.98
2018-02-13T09:52:02.614Z,1014.00
2018-02-13T09:53:02.628Z,1013.96
2018-02-13T09:54:02.649Z,1013.99
2018-02-13T09:55:02.743Z,1013.93
2018-02-13T09:56:02.693Z,1013.97
2018-02-13T09:57:02.708Z,1013.95
2018-02-13T09:58:02.722Z,1013.97
2018-02-13T09:59:02.763Z,1013.95
2018-02-13T10:00:02.763Z,1013.97
2018-02-13T10:01:02.774Z,1013.99
2018-02-13T10:02:02.807Z,1013.99
2018-02-13T10:03:02.817Z,1014.01
2018-02-13T10:04:02.839Z,1014.01
2018-02-13T10:05:02.862Z,1014.02
2018-02-13T10:06:02.879Z,1014.03
2018-02-13T10:07:02.919Z,1013.96
2018-02-13T10:08:02.923Z,1013.96
2018-02-13T10:09:02.938Z,1013.96
2018-02-13T10:10:02.961Z,1013.96
2018-02-13T10:11:02.977Z,1013.98
2018-02-13T10:12:03.002Z,1013.96
2018-02-13T10:13:03.029Z,1013.95
2018-02-13T10:14:03.035Z,1013.95
2018-02-13T10:15:03.054Z,1013.93
2018-02-13T10:16:03.086Z,1013.93
2018-02-13T10:17:03.101Z,1013.93
2018-02-13T10:18:03.132Z,1013.90
2018-02-13T10:19:03.160Z,1013.92
2018-02-13T10:20:03.161Z,1013.94
2018-02-13T10:21:03.170Z,1013.90
2018-02-13T10:22:03.197Z,1013.90
2018-02-13T10:23:03.209Z,1013.93
2018-02-13T10:24:03.240Z,1013.93
2018-02-13T10:25:03.276Z,1013.97
2018-02-13T10:26:03.280Z,1014.01
2018-02-13T10:27:03.299Z,1014.05
2018-02-13T10:28:03.321Z,1014.01
2018-02-13T10:29:03.337Z,1014.06
2018-02-13T10:30:03.431Z,1014.08
2018-02-13T10:31:03.383Z,1014.10
2018-02-13T10:32:03.400Z,1014.09
2018-02-13T10:33:03.423Z,1014.06
2018-02-13T10:34:03.447Z,1014.12
2018-02-13T10:35:03.494Z,1014.13
2018-02-13T10:36:03.491Z,1014.13
2018-02-13T10:37:03.513Z,1014.11
2018-02-13T10:38:03.671Z,1014.11
2018-02-13T10:39:03.565Z,1014.08
2018-02-13T10:40:03.615Z,1014.05
2018-02-13T10:41:03.638Z,1014.09
2018-02-13T10:42:03.641Z,1014.09
2018-02-13T10:43:03.676Z,1014.10
2018-02-13T10:44:03.700Z,1014.14
2018-02-13T10:45:03.725Z,1014.10
2018-02-13T10:46:03.754Z,1014.10
2018-02-13T10:47:03.778Z,1014.10
2018-02-13T10:48:03.836Z,1014.15
2018-02-13T10:49:03.839Z,1014.11
2018-02-13T10:50:03.885Z,1014.06
2018-02-13T10:51:03.896Z,1014.10
2018-02-13T10:52:03.933Z,1014.08
2018-02-13T10:53:03.965Z,1014.07
2018-02-13T10:54:03.994Z,1014.07
2018-02-13T10:55:04.016Z,1014.04
2018-02-13T10:56:04.045Z,1014.05
2018-02-13T10:57:04.077Z,1014.06
2018-02-13T10:58:04.111Z,1014.04
2018-02-13T10:59:04.151Z,1014.04
2018-02-13T11:00:04.174Z,1014.03
2018-02-13T11:01:04.205Z,1014.03
2018-02-13T11:02:04.230Z,1014.02
2018-02-13T11:03:04.269Z,1014.00
2018-02-13T11:04:04.304Z,1014.03
2018-02-13T11:05:04.337Z,1013.99
2018-02-13T11:06:04.372Z,1013.98
2018-02-13T11:07:04.390Z,1014.01
2018-02-13T11:08:04.423Z,1013.96
2018-02-13T11:09:04.457Z,1013.99
2018-02-13T11:10:04.483Z,1013.96
2018-02-13T11:11:04.509Z,1013.94
2018-02-13T11:12:04.543Z,1013.97
2018-02-13T11:13:04.572Z,1013.98
2018-02-13T11:14:04.619Z,1013.96
2018-02-13T11:15:04.636Z,1013.95
2018-02-13T11:16:04.666Z,1013.92
2018-02-13T11:17:04.699Z,1013.86
2018-02-13T11:18:04.740Z,1013.86
2018-02-13T11:19:04.773Z,1013.86
2018-02-13T11:20:04.800Z,1013.84
2018-02-13T11:21:04.839Z,1013.81
2018-02-13T11:22:04.856Z,1013.79
2018-02-13T11:23:04.883Z,1013.83
2018-02-13T11:24:04.912Z,1013.84
2018-02-13T11:25:04.942Z,1013.87
2018-02-13T11:26:05.014Z,1013.83
2018-02-13T11:27:05.002Z,1013.81
2018-02-13T11:28:05.030Z,1013.77
2018-02-13T11:29:05.068Z,1013.78
2018-02-13T11:30:05.105Z,1013.81
2018-02-13T11:31:05.132Z,1013.75
2018-02-13T11:32:05.160Z,1013.77
2018-02-13T11:33:05.176Z,1013.76
2018-02-13T11:34:05.206Z,1013.70
2018-02-13T11:35:05.238Z,1013.76
2018-02-13T11:36:05.276Z,1013.75
2018-02-13T11:37:05.307Z,1013.68
2018-02-13T11:38:05.334Z,1013.72
2018-02-13T11:39:05.354Z,1013.68
2018-02-13T11:40:05.392Z,1013.67
2018-02-13T11:41:05.426Z,1013.72
2018-02-13T11:42:05.446Z,1013.67
2018-02-13T11:43:05.482Z,1013.66
2018-02-13T11:44:05.520Z,1013.57
2018-02-13T11:45:05.537Z,1013.59
2018-02-13T11:46:05.563Z,1013.55
2018-02-13T11:47:05.582Z,1013.58
2018-02-13T11:48:05.616Z,1013.59
2018-02-13T11:49:05.636Z,1013.65
2018-02-13T11:50:05.682Z,1013.61
2018-02-13T11:51:05.698Z,1013.61
2018-02-13T11:52:05.828Z,1013.58
2018-02-13T11:53:05.750Z,1013.62
2018-02-13T11:54:05.780Z,1013.61
2018-02-13T11:55:05.814Z,1013.62
2018-02-13T11:56:05.835Z,1013.62
2018-02-13T11:57:05.867Z,1013.61
2018-02-13T11:58:05.897Z,1013.57
2018-02-13T11:59:05.938Z,1013.57
2018-02-13T12:00:05.964Z,1013.52
2018-02-13T12:01:05.976Z,1013.57
2018-02-13T12:02:05.997Z,1013.56
2018-02-13T12:03:06.038Z,1013.56
2018-02-13T12:04:06.066Z,1013.54
2018-02-13T12:05:06.092Z,1013.54
2018-02-13T12:06:06.111Z,1013.51